Buoy 51820

sailwx.info

Track history (hours):
 
Tides and Currents Weather Stations Pressure Air Temp Water Temp Dewpoint Dewpoint Depression Visibility Wind Speed Wind Dir Waves Ship Positions

Drifting buoy 51820

Last reported at 2018-Jun-25 06:15 UTC. Time now 2018-Jun-25 08:03 UTC.
Position S 11°44' W 172°00'.

Water temperature 29.4 ° C

Date/timePositionNaut miles runAvg speedWind from/ knotsBaromVisibWave heightAir tempDewpointWater temp
2018-Jun-25 06:15S 11°44' W 172°00'1 3.4 29.4
2018-Jun-25 06:00S 11°44' W 171°59'0 0.0 29.4
2018-Jun-25 05:00S 11°44' W 171°59'1 1.7 29.4
2018-Jun-25 04:30S 11°43' W 171°59'0 0.0 29.4
2018-Jun-25 04:15S 11°43' W 171°59'0 0.0 29.4
2018-Jun-25 03:30S 11°43' W 171°59'0 0.0 29.4
2018-Jun-25 03:15S 11°43' W 171°59'3 0.6 29.4
2018-Jun-24 22:00S 11°42' W 171°56'1 0.8 29.4
2018-Jun-24 21:00S 11°41' W 171°56'1 3.4 29.4
2018-Jun-24 20:45S 11°42' W 171°56'0 0.0 29.4
2018-Jun-24 20:30S 11°42' W 171°56'1 3.4 29.4
2018-Jun-24 20:15S 11°41' W 171°55'0 0.0 29.4
2018-Jun-24 19:15S 11°41' W 171°55'1 3.4 29.3
2018-Jun-24 19:00S 11°41' W 171°55'0 0.0 29.4
2018-Jun-24 18:45S 11°41' W 171°55'1 1.2 29.4
2018-Jun-24 17:45S 11°41' W 171°56'2 6.7 29.4
2018-Jun-24 17:30S 11°40' W 171°55'0 0.0 29.4
2018-Jun-24 17:15S 11°40' W 171°55'0 0.0 29.4
2018-Jun-24 16:30S 11°40' W 171°55'0 0.0 29.4
2018-Jun-24 16:15S 11°40' W 171°55'0 0.0 29.4
2018-Jun-24 14:45S 11°40' W 171°55'2 7.4 29.4
2018-Jun-24 14:30S 11°39' W 171°53'0 0.0 29.4
2018-Jun-24 10:00S 11°39' W 171°53'0 0.0 29.5
2018-Jun-24 09:45S 11°39' W 171°53'1 1.2 29.5
2018-Jun-24 09:15S 11°38' W 171°53'1 2.4 29.5
2018-Jun-24 09:00S 11°38' W 171°52'0 0.0 29.5
2018-Jun-24 08:15S 11°38' W 171°52'0 0.0 29.5
2018-Jun-24 08:00S 11°38' W 171°52'1 2.7 29.5
2018-Jun-24 07:30S 11°37' W 171°52'1 0.6 29.5
2018-Jun-24 06:30S 11°37' W 171°52'1 4.7 29.6
2018-Jun-24 06:15S 11°37' W 171°51'0 0.0 29.5
2018-Jun-24 06:00S 11°37' W 171°51'1 0.6 29.6
2018-Jun-24 05:00S 11°37' W 171°51'2 7.1 29.6
2018-Jun-24 04:45S 11°37' W 171°53'6 5.1 29.6
2018-Jun-24 03:30S 11°34' W 171°47'1 0.2 29.7
2018-Jun-23 20:45S 11°34' W 171°46'0 0.0 29.4
2018-Jun-23 20:30S 11°34' W 171°46'0 0.0 29.4
2018-Jun-23 19:45S 11°34' W 171°46'0 0.0 29.4
2018-Jun-23 19:30S 11°34' W 171°46'1 4.7 29.4
2018-Jun-23 19:15S 11°34' W 171°47'1 4.7 29.4
2018-Jun-23 19:00S 11°34' W 171°46'1 1.2 29.4
2018-Jun-23 18:00S 11°34' W 171°44'0 0.0 29.3
2018-Jun-23 17:45S 11°34' W 171°44'0 0.0 29.3
2018-Jun-23 16:15S 11°34' W 171°44'1 0.5 29.4
2018-Jun-23 15:00S 11°34' W 171°44'1 3.4 29.3
2018-Jun-23 14:45S 11°33' W 171°44'1 0.3 29.4
2018-Jun-23 10:15S 11°33' W 171°43'0 0.0 29.4
2018-Jun-23 09:30S 11°33' W 171°43'0 0.0 29.4
2018-Jun-23 08:45S 11°33' W 171°43'1 2.4 29.4
2018-Jun-23 08:30S 11°33' W 171°43'1 2.4 29.4
2018-Jun-23 08:00S 11°33' W 171°42'0 0.0 29.4
2018-Jun-23 07:45S 11°33' W 171°42'0 0.0 29.4
2018-Jun-23 06:30S 11°33' W 171°42'0 0.0 29.4
2018-Jun-23 06:15S 11°33' W 171°42'1 0.8 29.4
2018-Jun-23 05:30S 11°32' W 171°42'0 0.0 29.4
2018-Jun-23 05:15S 11°32' W 171°42'1 0.9 29.5
2018-Jun-23 03:45S 11°32' W 171°41'1 5.3 29.6
2018-Jun-23 03:30S 11°32' W 171°42'1 0.8 29.6
2018-Jun-23 02:00S 11°31' W 171°42'1 0.3 29.6
2018-Jun-22 21:45S 11°30' W 171°42'1 1.6 29.4
2018-Jun-22 21:00S 11°30' W 171°41'0 0.0 29.3
2018-Jun-22 20:45S 11°30' W 171°41'0 0.0 29.3
2018-Jun-22 20:00S 11°30' W 171°41'0 0.0 29.3
2018-Jun-22 19:15S 11°30' W 171°41'1 0.8 29.3
2018-Jun-22 18:30S 11°30' W 171°41'0 0.0 29.2
2018-Jun-22 18:15S 11°30' W 171°41'1 0.4 29.2
2018-Jun-22 16:45S 11°30' W 171°41'0 0.0 29.2
2018-Jun-22 16:30S 11°30' W 171°41'1 0.5 29.2
2018-Jun-22 15:15S 11°29' W 171°41'2 7.6 29.3
2018-Jun-22 15:00S 11°28' W 171°40'0 0.0 29.2
2018-Jun-22 10:00S 11°28' W 171°40'1 3.4 29.3
2018-Jun-22 09:45S 11°27' W 171°40'1 0.8 29.3
2018-Jun-22 09:00S 11°27' W 171°39'0 0.0 29.3
2018-Jun-22 08:45S 11°27' W 171°39'1 1.2 29.3
2018-Jun-22 08:15S 11°27' W 171°40'0 0.0 29.3
2018-Jun-22 08:00S 11°27' W 171°40'1 1.8 29.3
2018-Jun-22 07:15S 11°26' W 171°39'0 0.0 29.3
2018-Jun-22 06:30S 11°26' W 171°39'0 0.0 29.3
2018-Jun-22 06:00S 11°26' W 171°39'1 3.4 29.3
2018-Jun-22 05:45S 11°26' W 171°38'1 5.3 29.3
2018-Jun-22 05:30S 11°25' W 171°38'0 0.0 29.3
2018-Jun-22 04:15S 11°25' W 171°38'1 2.4 29.4
2018-Jun-22 04:00S 11°25' W 171°38'0 0.0 29.4
2018-Jun-22 03:45S 11°25' W 171°38'1 0.6 29.4
2018-Jun-22 02:15S 11°25' W 171°38'2 0.5 29.4
2018-Jun-21 22:00S 11°23' W 171°37'0 0.0 29.3
2018-Jun-21 21:30S 11°23' W 171°37'1 3.4 29.3
2018-Jun-21 21:15S 11°22' W 171°36'0 0.0 29.3
2018-Jun-21 20:30S 11°22' W 171°36'1 2.4 29.3
2018-Jun-21 20:15S 11°22' W 171°35'0 0.0 29.3
2018-Jun-21 19:45S 11°22' W 171°35'0 0.0 29.2
2018-Jun-21 19:30S 11°22' W 171°35'0 0.0 29.2
2018-Jun-21 19:00S 11°22' W 171°35'0 0.0 29.2
2018-Jun-21 18:45S 11°22' W 171°35'1 0.8 29.2
2018-Jun-21 18:00S 11°22' W 171°35'1 2.4 29.2
2018-Jun-21 17:45S 11°22' W 171°34'1 1.2 29.2
2018-Jun-21 17:15S 11°22' W 171°35'313.8 29.2
2018-Jun-21 17:00S 11°20' W 171°32'0 0.0 29.2
2018-Jun-21 15:15S 11°20' W 171°32'0 0.0 29.3
2018-Jun-21 10:15S 11°20' W 171°32'1 0.6 29.3
2018-Jun-21 09:15S 11°20' W 171°32'0 0.0 29.3
2018-Jun-21 08:45S 11°20' W 171°32'0 0.0 29.3
2018-Jun-21 08:30S 11°20' W 171°32'0 0.0 29.3
2018-Jun-21 08:15S 11°20' W 171°32'1 1.6 29.3
2018-Jun-21 07:30S 11°20' W 171°31'1 0.8 29.3
2018-Jun-21 06:45S 11°19' W 171°31'1 2.4 29.3
2018-Jun-21 06:30S 11°19' W 171°31'1 5.3 29.3
2018-Jun-21 06:15S 11°18' W 171°29'0 0.0 29.3
2018-Jun-21 06:00S 11°18' W 171°29'1 0.9 29.4
2018-Jun-21 04:45S 11°18' W 171°28'1 1.2 29.4
2018-Jun-21 04:15S 11°18' W 171°29'0 0.0 29.4
2018-Jun-21 04:00S 11°18' W 171°29'1 0.4 29.4
2018-Jun-21 02:30S 11°18' W 171°28'0 0.0 29.4
2018-Jun-21 02:15S 11°18' W 171°28'3 0.6 29.4
2018-Jun-20 21:45S 11°16' W 171°26'1 4.7 29.3
2018-Jun-20 21:30S 11°16' W 171°25'1 0.8 29.3
2018-Jun-20 20:45S 11°16' W 171°26'1 2.4 29.3
2018-Jun-20 20:30S 11°16' W 171°25'1 2.4 29.3
2018-Jun-20 20:00S 11°16' W 171°24'0 0.0 29.3
2018-Jun-20 19:45S 11°16' W 171°24'0 0.0 29.3
2018-Jun-20 19:30S 11°16' W 171°24'0 0.0 29.3
2018-Jun-20 19:00S 11°16' W 171°24'0 0.0 29.3
2018-Jun-20 18:15S 11°16' W 171°24'1 4.7 29.3
2018-Jun-20 18:00S 11°16' W 171°23'1 4.7 29.3
2018-Jun-20 17:45S 11°16' W 171°24'1 0.7 29.3
2018-Jun-20 16:00S 11°16' W 171°23'1 1.7 29.3
2018-Jun-20 15:30S 11°16' W 171°23'0 0.0 29.3
2018-Jun-20 15:15S 11°16' W 171°23'1 0.4 29.3
2018-Jun-20 13:45S 11°16' W 171°23'3 0.7 29.3
2018-Jun-20 09:45S 11°14' W 171°20'1 3.4 29.3
2018-Jun-20 09:30S 11°14' W 171°21'1 1.7 29.3
2018-Jun-20 09:00S 11°14' W 171°20'1 2.4 29.3
2018-Jun-20 08:45S 11°14' W 171°20'0 0.0 29.3
2018-Jun-20 08:30S 11°14' W 171°20'1 1.2 29.3
2018-Jun-20 08:00S 11°14' W 171°20'0 0.0 29.3
2018-Jun-20 07:45S 11°14' W 171°20'1 1.6 29.3
2018-Jun-20 07:00S 11°14' W 171°19'0 0.0 29.4
2018-Jun-20 05:15S 11°14' W 171°19'0 0.0 29.4
2018-Jun-20 05:00S 11°14' W 171°19'0 0.0 29.4
2018-Jun-20 04:45S 11°14' W 171°19'1 2.4 29.4
2018-Jun-20 04:30S 11°14' W 171°19'1 2.4 29.4
2018-Jun-20 04:15S 11°14' W 171°18'0 0.0 29.4
2018-Jun-20 03:45S 11°14' W 171°18'0 0.0 29.4
2018-Jun-20 03:30S 11°14' W 171°18'0 0.0 29.4
2018-Jun-20 02:45S 11°14' W 171°18'0 0.0 29.4
2018-Jun-20 02:30S 11°14' W 171°18'2 0.5 29.4
2018-Jun-19 22:00S 11°13' W 171°16'0 0.0 29.3
2018-Jun-19 21:00S 11°13' W 171°16'0 0.0 29.3
2018-Jun-19 20:30S 11°13' W 171°16'1 2.4 29.3
2018-Jun-19 20:15S 11°13' W 171°16'1 2.4 29.3
2018-Jun-19 20:00S 11°13' W 171°16'1 2.4 29.3
2018-Jun-19 19:45S 11°13' W 171°16'0 0.0 29.3
2018-Jun-19 19:30S 11°13' W 171°16'0 0.0 29.3
2018-Jun-19 19:15S 11°13' W 171°16'1 0.6 29.3
2018-Jun-19 18:15S 11°13' W 171°16'1 3.4 29.3
2018-Jun-19 18:00S 11°13' W 171°16'0 0.0 29.3
2018-Jun-19 16:45S 11°13' W 171°16'1 3.4 29.3
2018-Jun-19 16:30S 11°12' W 171°16'0 0.0 29.2
2018-Jun-19 16:15S 11°12' W 171°16'1 1.7 29.2
2018-Jun-19 15:45S 11°13' W 171°16'1 3.4 29.2
2018-Jun-19 15:30S 11°12' W 171°16'1 0.9 29.2
2018-Jun-19 14:00S 11°11' W 171°15'0 0.0 29.2
2018-Jun-19 10:00S 11°11' W 171°15'1 3.4 29.3
2018-Jun-19 09:45S 11°10' W 171°14'0 0.0 29.3
2018-Jun-19 09:15S 11°10' W 171°14'1 1.2 29.3
2018-Jun-19 08:45S 11°10' W 171°14'1 1.2 29.3
2018-Jun-19 08:15S 11°11' W 171°14'1 1.7 29.3
2018-Jun-19 07:45S 11°10' W 171°13'1 2.4 29.3
2018-Jun-19 07:30S 11°10' W 171°13'0 0.0 29.3
2018-Jun-19 07:15S 11°10' W 171°13'1 2.4 29.3
2018-Jun-19 07:00S 11°10' W 171°13'1 0.5 29.3
2018-Jun-19 05:45S 11°10' W 171°12'1 2.6 29.3
2018-Jun-19 05:15S 11°09' W 171°11'0 0.0 29.3
2018-Jun-19 04:30S 11°09' W 171°11'0 0.0 29.4
2018-Jun-19 04:15S 11°09' W 171°11'1 3.4 29.4
2018-Jun-19 04:00S 11°08' W 171°10'0 0.0 29.4
2018-Jun-19 03:00S 11°08' W 171°10'311.9 29.4
2018-Jun-19 02:45S 11°06' W 171°08'1 0.1 29.4
2018-Jun-18 20:45S 11°06' W 171°08'0 0.0 29.3
2018-Jun-18 20:30S 11°06' W 171°08'0 0.0 29.3
2018-Jun-18 20:15S 11°06' W 171°08'1 3.4 29.2
2018-Jun-18 20:00S 11°05' W 171°07'0 0.0 29.2
2018-Jun-18 19:45S 11°05' W 171°07'0 0.0 29.2
2018-Jun-18 19:30S 11°05' W 171°07'0 0.0 29.3
2018-Jun-18 18:45S 11°05' W 171°07'0 0.0 29.2
2018-Jun-18 18:30S 11°05' W 171°07'1 2.4 29.2
2018-Jun-18 18:15S 11°05' W 171°07'0 0.0 29.2
2018-Jun-18 17:15S 11°05' W 171°07'0 0.0 29.3
2018-Jun-18 17:00S 11°05' W 171°07'0 0.0 29.3
2018-Jun-18 16:00S 11°05' W 171°07'1 2.4 29.3
2018-Jun-18 15:45S 11°05' W 171°06'0 0.0 29.3
2018-Jun-18 14:15S 11°05' W 171°06'1 5.3 29.3
2018-Jun-18 14:00S 11°04' W 171°07'0 0.0 29.3
2018-Jun-18 10:15S 11°04' W 171°07'0 0.0 29.3
2018-Jun-18 09:45S 11°04' W 171°07'1 2.4 29.3
2018-Jun-18 09:30S 11°04' W 171°06'0 0.0 29.3
2018-Jun-18 08:45S 11°04' W 171°06'1 2.4 29.3
2018-Jun-18 08:30S 11°04' W 171°07'1 1.2 29.4
2018-Jun-18 08:00S 11°04' W 171°06'0 0.0 29.4
2018-Jun-18 07:45S 11°04' W 171°06'1 2.4 29.4
2018-Jun-18 07:30S 11°04' W 171°07'0 0.0 29.4
2018-Jun-18 07:15S 11°04' W 171°07'1 0.8 29.4
2018-Jun-18 06:15S 11°04' W 171°06'1 2.4 29.4
2018-Jun-18 05:45S 11°05' W 171°06'0 0.0 29.4
2018-Jun-18 05:30S 11°05' W 171°06'1 1.1 29.4
2018-Jun-18 04:45S 11°04' W 171°05'0 0.0 29.4
2018-Jun-18 04:30S 11°04' W 171°05'1 0.9 29.4
2018-Jun-18 03:00S 11°03' W 171°06'0 0.0 29.4
2018-Jun-17 21:45S 11°03' W 171°06'1 1.2 29.4
2018-Jun-17 21:15S 11°03' W 171°05'1 3.4 29.3
2018-Jun-17 21:00S 11°02' W 171°05'0 0.0 29.3
2018-Jun-17 20:15S 11°02' W 171°05'1 2.4 29.2
2018-Jun-17 20:00S 11°02' W 171°04'0 0.0 29.2
2018-Jun-17 19:30S 11°02' W 171°04'0 0.0 29.2
2018-Jun-17 19:15S 11°02' W 171°04'0 0.0 29.2
2018-Jun-17 18:45S 11°02' W 171°04'0 0.0 29.2
2018-Jun-17 18:30S 11°02' W 171°04'0 0.0 29.2
2018-Jun-17 17:45S 11°02' W 171°04'0 0.0 29.2
2018-Jun-17 17:30S 11°02' W 171°04'0 0.0 29.2
2018-Jun-17 17:15S 11°02' W 171°04'1 2.4 29.2
2018-Jun-17 17:00S 11°02' W 171°04'0 0.0 29.2
2018-Jun-17 16:00S 11°02' W 171°04'0 0.0 29.2
2018-Jun-17 14:30S 11°02' W 171°04'1 5.3 29.2
2018-Jun-17 14:15S 11°01' W 171°03'0 0.0 29.2
2018-Jun-17 10:00S 11°01' W 171°03'0 0.0 29.3
2018-Jun-17 09:45S 11°01' W 171°03'1 1.8 29.3
2018-Jun-17 09:00S 11°00' W 171°02'0 0.0 29.4
2018-Jun-17 08:45S 11°00' W 171°02'0 0.0 29.4
2018-Jun-17 08:15S 11°00' W 171°02'1 1.8 29.4
2018-Jun-17 07:30S 10°59' W 171°01'0 0.0 29.4
2018-Jun-17 07:15S 10°59' W 171°01'0 0.0 29.4
2018-Jun-17 06:15S 10°59' W 171°01'0 0.0 29.4
2018-Jun-17 06:00S 10°59' W 171°01'0 0.0 29.4
2018-Jun-17 05:45S 10°59' W 171°01'0 0.0 29.4
2018-Jun-17 05:15S 10°59' W 171°01'0 0.0 29.5
2018-Jun-17 05:00S 10°59' W 171°01'0 0.0 29.5
2018-Jun-17 04:45S 10°59' W 171°01'0 0.0 29.5
2018-Jun-17 04:30S 10°59' W 171°01'0 0.0 29.5
2018-Jun-17 03:15S 10°59' W 171°01'0 0.0 29.6
2018-Jun-17 03:00S 10°59' W 171°01'2 0.4 29.6
2018-Jun-16 22:00S 10°58' W 171°01'0 0.0 29.4
2018-Jun-16 21:30S 10°58' W 171°01'0 0.0 29.3
2018-Jun-16 21:15S 10°58' W 171°01'1 0.8 29.3
2018-Jun-16 20:30S 10°58' W 171°00'1 2.4 29.3
2018-Jun-16 20:15S 10°57' W 171°00'0 0.0 29.3
2018-Jun-16 19:45S 10°57' W 171°00'0 0.0 29.3
2018-Jun-16 19:30S 10°57' W 171°00'0 0.0 29.3
2018-Jun-16 19:00S 10°57' W 171°00'1 2.4 29.2
2018-Jun-16 18:45S 10°56' W 171°00'1 1.7 29.3
2018-Jun-16 18:15S 10°57' W 171°01'0 0.0 29.2
2018-Jun-16 18:00S 10°57' W 171°01'1 2.4 29.2
2018-Jun-16 17:45S 10°56' W 171°01'1 2.4 29.2
2018-Jun-16 17:30S 10°56' W 171°00'0 0.0 29.2
2018-Jun-16 16:30S 10°56' W 171°00'1 2.4 29.3
2018-Jun-16 16:15S 10°56' W 171°00'0 0.0 29.2
2018-Jun-16 14:45S 10°56' W 171°00'2 9.9 29.3
2018-Jun-16 14:30S 10°53' W 170°59'0 0.0 29.3
2018-Jun-16 10:15S 10°53' W 170°59'1 0.8 29.3
2018-Jun-16 09:15S 10°53' W 170°59'0 0.0 29.3
2018-Jun-16 08:45S 10°53' W 170°59'0 0.0 29.3
2018-Jun-16 08:30S 10°53' W 170°59'0 0.0 29.3
2018-Jun-16 07:45S 10°53' W 170°59'0 0.0 29.3
2018-Jun-16 07:30S 10°53' W 170°59'2 1.3 29.3
2018-Jun-16 06:00S 10°51' W 170°58'0 0.0 29.3
2018-Jun-16 05:45S 10°51' W 170°58'1 2.4 29.3
2018-Jun-16 05:30S 10°51' W 170°58'0 0.0 29.3
2018-Jun-16 05:00S 10°51' W 170°58'0 0.0 29.3
2018-Jun-16 04:45S 10°51' W 170°58'1 0.8 29.3
2018-Jun-16 04:00S 10°50' W 170°58'0 0.0 29.3
2018-Jun-16 03:30S 10°50' W 170°58'0 0.0 29.3
2018-Jun-16 03:15S 10°50' W 170°58'3 0.5 29.4
2018-Jun-15 21:45S 10°49' W 170°55'1 1.3 29.3
2018-Jun-15 20:45S 10°48' W 170°55'0 0.0 29.3
2018-Jun-15 20:15S 10°48' W 170°55'1 2.4 29.3
2018-Jun-15 20:00S 10°49' W 170°55'0 0.0 29.2
2018-Jun-15 19:00S 10°49' W 170°55'2 6.7 29.2
2018-Jun-15 18:45S 10°47' W 170°53'0 0.0 29.2
2018-Jun-15 18:30S 10°47' W 170°53'0 0.0 29.2
2018-Jun-15 18:00S 10°47' W 170°53'1 0.6 29.2
2018-Jun-15 17:00S 10°47' W 170°54'1 1.2 29.3
2018-Jun-15 16:30S 10°47' W 170°53'0 0.0 29.3
2018-Jun-15 16:15S 10°47' W 170°53'2 1.1 29.3
2018-Jun-15 14:45S 10°46' W 170°52'1 0.1 29.3
2018-Jun-15 09:45S 10°46' W 170°53'1 3.4 29.3
2018-Jun-15 09:30S 10°47' W 170°52'1 2.7 29.3
2018-Jun-15 09:00S 10°46' W 170°52'0 0.0 29.3
2018-Jun-15 08:45S 10°46' W 170°52'1 0.8 29.3
2018-Jun-15 08:00S 10°46' W 170°52'1 2.4 29.3
2018-Jun-15 07:45S 10°46' W 170°52'1 0.4 29.3
2018-Jun-15 06:15S 10°46' W 170°51'   29.4
Track history (hours):
 
Tides and Currents Weather Stations Pressure Air Temp Water Temp Dewpoint Dewpoint Depression Visibility Wind Speed Wind Dir Waves Ship Positions

Drifting buoy 51820

Last reported at 2018-Jun-25 06:15 UTC. Time now 2018-Jun-25 08:03 UTC.
Position S 11°44' W 172°00'.

Water temperature 29.4 ° C

Date/timePositionNaut miles runAvg speedWind from/ knotsBaromVisibWave heightAir tempDewpointWater temp
2018-Jun-25 06:15S 11°44' W 172°00'1 3.4 29.4
2018-Jun-25 06:00S 11°44' W 171°59'0 0.0 29.4
2018-Jun-25 05:00S 11°44' W 171°59'1 1.7 29.4
2018-Jun-25 04:30S 11°43' W 171°59'0 0.0 29.4
2018-Jun-25 04:15S 11°43' W 171°59'0 0.0 29.4
2018-Jun-25 03:30S 11°43' W 171°59'0 0.0 29.4
2018-Jun-25 03:15S 11°43' W 171°59'3 0.6 29.4
2018-Jun-24 22:00S 11°42' W 171°56'1 0.8 29.4
2018-Jun-24 21:00S 11°41' W 171°56'1 3.4 29.4
2018-Jun-24 20:45S 11°42' W 171°56'0 0.0 29.4
2018-Jun-24 20:30S 11°42' W 171°56'1 3.4 29.4
2018-Jun-24 20:15S 11°41' W 171°55'0 0.0 29.4
2018-Jun-24 19:15S 11°41' W 171°55'1 3.4 29.3
2018-Jun-24 19:00S 11°41' W 171°55'0 0.0 29.4
2018-Jun-24 18:45S 11°41' W 171°55'1 1.2 29.4
2018-Jun-24 17:45S 11°41' W 171°56'2 6.7 29.4
2018-Jun-24 17:30S 11°40' W 171°55'0 0.0 29.4
2018-Jun-24 17:15S 11°40' W 171°55'0 0.0 29.4
2018-Jun-24 16:30S 11°40' W 171°55'0 0.0 29.4
2018-Jun-24 16:15S 11°40' W 171°55'0 0.0 29.4
2018-Jun-24 14:45S 11°40' W 171°55'2 7.4 29.4
2018-Jun-24 14:30S 11°39' W 171°53'0 0.0 29.4
2018-Jun-24 10:00S 11°39' W 171°53'0 0.0 29.5
2018-Jun-24 09:45S 11°39' W 171°53'1 1.2 29.5
2018-Jun-24 09:15S 11°38' W 171°53'1 2.4 29.5
2018-Jun-24 09:00S 11°38' W 171°52'0 0.0 29.5
2018-Jun-24 08:15S 11°38' W 171°52'0 0.0 29.5
2018-Jun-24 08:00S 11°38' W 171°52'1 2.7 29.5
2018-Jun-24 07:30S 11°37' W 171°52'1 0.6 29.5
2018-Jun-24 06:30S 11°37' W 171°52'1 4.7 29.6
2018-Jun-24 06:15S 11°37' W 171°51'0 0.0 29.5
2018-Jun-24 06:00S 11°37' W 171°51'1 0.6 29.6
2018-Jun-24 05:00S 11°37' W 171°51'2 7.1 29.6
2018-Jun-24 04:45S 11°37' W 171°53'6 5.1 29.6
2018-Jun-24 03:30S 11°34' W 171°47'1 0.2 29.7
2018-Jun-23 20:45S 11°34' W 171°46'0 0.0 29.4
2018-Jun-23 20:30S 11°34' W 171°46'0 0.0 29.4
2018-Jun-23 19:45S 11°34' W 171°46'0 0.0 29.4
2018-Jun-23 19:30S 11°34' W 171°46'1 4.7 29.4
2018-Jun-23 19:15S 11°34' W 171°47'1 4.7 29.4
2018-Jun-23 19:00S 11°34' W 171°46'1 1.2 29.4
2018-Jun-23 18:00S 11°34' W 171°44'0 0.0 29.3
2018-Jun-23 17:45S 11°34' W 171°44'0 0.0 29.3
2018-Jun-23 16:15S 11°34' W 171°44'1 0.5 29.4
2018-Jun-23 15:00S 11°34' W 171°44'1 3.4 29.3
2018-Jun-23 14:45S 11°33' W 171°44'1 0.3 29.4
2018-Jun-23 10:15S 11°33' W 171°43'0 0.0 29.4
2018-Jun-23 09:30S 11°33' W 171°43'0 0.0 29.4
2018-Jun-23 08:45S 11°33' W 171°43'1 2.4 29.4
2018-Jun-23 08:30S 11°33' W 171°43'1 2.4 29.4
2018-Jun-23 08:00S 11°33' W 171°42'0 0.0 29.4
2018-Jun-23 07:45S 11°33' W 171°42'0 0.0 29.4
2018-Jun-23 06:30S 11°33' W 171°42'0 0.0 29.4
2018-Jun-23 06:15S 11°33' W 171°42'1 0.8 29.4
2018-Jun-23 05:30S 11°32' W 171°42'0 0.0 29.4
2018-Jun-23 05:15S 11°32' W 171°42'1 0.9 29.5
2018-Jun-23 03:45S 11°32' W 171°41'1 5.3 29.6
2018-Jun-23 03:30S 11°32' W 171°42'1 0.8 29.6
2018-Jun-23 02:00S 11°31' W 171°42'1 0.3 29.6
2018-Jun-22 21:45S 11°30' W 171°42'1 1.6 29.4
2018-Jun-22 21:00S 11°30' W 171°41'0 0.0 29.3
2018-Jun-22 20:45S 11°30' W 171°41'0 0.0 29.3
2018-Jun-22 20:00S 11°30' W 171°41'0 0.0 29.3
2018-Jun-22 19:15S 11°30' W 171°41'1 0.8 29.3
2018-Jun-22 18:30S 11°30' W 171°41'0 0.0 29.2
2018-Jun-22 18:15S 11°30' W 171°41'1 0.4 29.2
2018-Jun-22 16:45S 11°30' W 171°41'0 0.0 29.2
2018-Jun-22 16:30S 11°30' W 171°41'1 0.5 29.2
2018-Jun-22 15:15S 11°29' W 171°41'2 7.6 29.3
2018-Jun-22 15:00S 11°28' W 171°40'0 0.0 29.2
2018-Jun-22 10:00S 11°28' W 171°40'1 3.4 29.3
2018-Jun-22 09:45S 11°27' W 171°40'1 0.8 29.3
2018-Jun-22 09:00S 11°27' W 171°39'0 0.0 29.3
2018-Jun-22 08:45S 11°27' W 171°39'1 1.2 29.3
2018-Jun-22 08:15S 11°27' W 171°40'0 0.0 29.3
2018-Jun-22 08:00S 11°27' W 171°40'1 1.8 29.3
2018-Jun-22 07:15S 11°26' W 171°39'0 0.0 29.3
2018-Jun-22 06:30S 11°26' W 171°39'0 0.0 29.3
2018-Jun-22 06:00S 11°26' W 171°39'1 3.4 29.3
2018-Jun-22 05:45S 11°26' W 171°38'1 5.3 29.3
2018-Jun-22 05:30S 11°25' W 171°38'0 0.0 29.3
2018-Jun-22 04:15S 11°25' W 171°38'1 2.4 29.4
2018-Jun-22 04:00S 11°25' W 171°38'0 0.0 29.4
2018-Jun-22 03:45S 11°25' W 171°38'1 0.6 29.4
2018-Jun-22 02:15S 11°25' W 171°38'2 0.5 29.4
2018-Jun-21 22:00S 11°23' W 171°37'0 0.0 29.3
2018-Jun-21 21:30S 11°23' W 171°37'1 3.4 29.3
2018-Jun-21 21:15S 11°22' W 171°36'0 0.0 29.3
2018-Jun-21 20:30S 11°22' W 171°36'1 2.4 29.3
2018-Jun-21 20:15S 11°22' W 171°35'0 0.0 29.3
2018-Jun-21 19:45S 11°22' W 171°35'0 0.0 29.2
2018-Jun-21 19:30S 11°22' W 171°35'0 0.0 29.2
2018-Jun-21 19:00S 11°22' W 171°35'0 0.0 29.2
2018-Jun-21 18:45S 11°22' W 171°35'1 0.8 29.2
2018-Jun-21 18:00S 11°22' W 171°35'1 2.4 29.2
2018-Jun-21 17:45S 11°22' W 171°34'1 1.2 29.2
2018-Jun-21 17:15S 11°22' W 171°35'313.8 29.2
2018-Jun-21 17:00S 11°20' W 171°32'0 0.0 29.2
2018-Jun-21 15:15S 11°20' W 171°32'0 0.0 29.3
2018-Jun-21 10:15S 11°20' W 171°32'1 0.6 29.3
2018-Jun-21 09:15S 11°20' W 171°32'0 0.0 29.3
2018-Jun-21 08:45S 11°20' W 171°32'0 0.0 29.3
2018-Jun-21 08:30S 11°20' W 171°32'0 0.0 29.3
2018-Jun-21 08:15S 11°20' W 171°32'1 1.6 29.3
2018-Jun-21 07:30S 11°20' W 171°31'1 0.8 29.3
2018-Jun-21 06:45S 11°19' W 171°31'1 2.4 29.3
2018-Jun-21 06:30S 11°19' W 171°31'1 5.3 29.3
2018-Jun-21 06:15S 11°18' W 171°29'0 0.0 29.3
2018-Jun-21 06:00S 11°18' W 171°29'1 0.9 29.4
2018-Jun-21 04:45S 11°18' W 171°28'1 1.2 29.4
2018-Jun-21 04:15S 11°18' W 171°29'0 0.0 29.4
2018-Jun-21 04:00S 11°18' W 171°29'1 0.4 29.4
2018-Jun-21 02:30S 11°18' W 171°28'0 0.0 29.4
2018-Jun-21 02:15S 11°18' W 171°28'3 0.6 29.4
2018-Jun-20 21:45S 11°16' W 171°26'1 4.7 29.3
2018-Jun-20 21:30S 11°16' W 171°25'1 0.8 29.3
2018-Jun-20 20:45S 11°16' W 171°26'1 2.4 29.3
2018-Jun-20 20:30S 11°16' W 171°25'1 2.4 29.3
2018-Jun-20 20:00S 11°16' W 171°24'0 0.0 29.3
2018-Jun-20 19:45S 11°16' W 171°24'0 0.0 29.3
2018-Jun-20 19:30S 11°16' W 171°24'0 0.0 29.3
2018-Jun-20 19:00S 11°16' W 171°24'0 0.0 29.3
2018-Jun-20 18:15S 11°16' W 171°24'1 4.7 29.3
2018-Jun-20 18:00S 11°16' W 171°23'1 4.7 29.3
2018-Jun-20 17:45S 11°16' W 171°24'1 0.7 29.3
2018-Jun-20 16:00S 11°16' W 171°23'1 1.7 29.3
2018-Jun-20 15:30S 11°16' W 171°23'0 0.0 29.3
2018-Jun-20 15:15S 11°16' W 171°23'1 0.4 29.3
2018-Jun-20 13:45S 11°16' W 171°23'3 0.7 29.3
2018-Jun-20 09:45S 11°14' W 171°20'1 3.4 29.3
2018-Jun-20 09:30S 11°14' W 171°21'1 1.7 29.3
2018-Jun-20 09:00S 11°14' W 171°20'1 2.4 29.3
2018-Jun-20 08:45S 11°14' W 171°20'0 0.0 29.3
2018-Jun-20 08:30S 11°14' W 171°20'1 1.2 29.3
2018-Jun-20 08:00S 11°14' W 171°20'0 0.0 29.3
2018-Jun-20 07:45S 11°14' W 171°20'1 1.6 29.3
2018-Jun-20 07:00S 11°14' W 171°19'0 0.0 29.4
2018-Jun-20 05:15S 11°14' W 171°19'0 0.0 29.4
2018-Jun-20 05:00S 11°14' W 171°19'0 0.0 29.4
2018-Jun-20 04:45S 11°14' W 171°19'1 2.4 29.4
2018-Jun-20 04:30S 11°14' W 171°19'1 2.4 29.4
2018-Jun-20 04:15S 11°14' W 171°18'0 0.0 29.4
2018-Jun-20 03:45S 11°14' W 171°18'0 0.0 29.4
2018-Jun-20 03:30S 11°14' W 171°18'0 0.0 29.4
2018-Jun-20 02:45S 11°14' W 171°18'0 0.0 29.4
2018-Jun-20 02:30S 11°14' W 171°18'2 0.5 29.4
2018-Jun-19 22:00S 11°13' W 171°16'0 0.0 29.3
2018-Jun-19 21:00S 11°13' W 171°16'0 0.0 29.3
2018-Jun-19 20:30S 11°13' W 171°16'1 2.4 29.3
2018-Jun-19 20:15S 11°13' W 171°16'1 2.4 29.3
2018-Jun-19 20:00S 11°13' W 171°16'1 2.4 29.3
2018-Jun-19 19:45S 11°13' W 171°16'0 0.0 29.3
2018-Jun-19 19:30S 11°13' W 171°16'0 0.0 29.3
2018-Jun-19 19:15S 11°13' W 171°16'1 0.6 29.3
2018-Jun-19 18:15S 11°13' W 171°16'1 3.4 29.3
2018-Jun-19 18:00S 11°13' W 171°16'0 0.0 29.3
2018-Jun-19 16:45S 11°13' W 171°16'1 3.4 29.3
2018-Jun-19 16:30S 11°12' W 171°16'0 0.0 29.2
2018-Jun-19 16:15S 11°12' W 171°16'1 1.7 29.2
2018-Jun-19 15:45S 11°13' W 171°16'1 3.4 29.2
2018-Jun-19 15:30S 11°12' W 171°16'1 0.9 29.2
2018-Jun-19 14:00S 11°11' W 171°15'0 0.0 29.2
2018-Jun-19 10:00S 11°11' W 171°15'1 3.4 29.3
2018-Jun-19 09:45S 11°10' W 171°14'0 0.0 29.3
2018-Jun-19 09:15S 11°10' W 171°14'1 1.2 29.3
2018-Jun-19 08:45S 11°10' W 171°14'1 1.2 29.3
2018-Jun-19 08:15S 11°11' W 171°14'1 1.7 29.3
2018-Jun-19 07:45S 11°10' W 171°13'1 2.4 29.3
2018-Jun-19 07:30S 11°10' W 171°13'0 0.0 29.3
2018-Jun-19 07:15S 11°10' W 171°13'1 2.4 29.3
2018-Jun-19 07:00S 11°10' W 171°13'1 0.5 29.3
2018-Jun-19 05:45S 11°10' W 171°12'1 2.6 29.3
2018-Jun-19 05:15S 11°09' W 171°11'0 0.0 29.3
2018-Jun-19 04:30S 11°09' W 171°11'0 0.0 29.4
2018-Jun-19 04:15S 11°09' W 171°11'1 3.4 29.4
2018-Jun-19 04:00S 11°08' W 171°10'0 0.0 29.4
2018-Jun-19 03:00S 11°08' W 171°10'311.9 29.4
2018-Jun-19 02:45S 11°06' W 171°08'1 0.1 29.4
2018-Jun-18 20:45S 11°06' W 171°08'0 0.0 29.3
2018-Jun-18 20:30S 11°06' W 171°08'0 0.0 29.3
2018-Jun-18 20:15S 11°06' W 171°08'1 3.4 29.2
2018-Jun-18 20:00S 11°05' W 171°07'0 0.0 29.2
2018-Jun-18 19:45S 11°05' W 171°07'0 0.0 29.2
2018-Jun-18 19:30S 11°05' W 171°07'0 0.0 29.3
2018-Jun-18 18:45S 11°05' W 171°07'0 0.0 29.2
2018-Jun-18 18:30S 11°05' W 171°07'1 2.4 29.2
2018-Jun-18 18:15S 11°05' W 171°07'0 0.0 29.2
2018-Jun-18 17:15S 11°05' W 171°07'0 0.0 29.3
2018-Jun-18 17:00S 11°05' W 171°07'0 0.0 29.3
2018-Jun-18 16:00S 11°05' W 171°07'1 2.4 29.3
2018-Jun-18 15:45S 11°05' W 171°06'0 0.0 29.3
2018-Jun-18 14:15S 11°05' W 171°06'1 5.3 29.3
2018-Jun-18 14:00S 11°04' W 171°07'0 0.0 29.3
2018-Jun-18 10:15S 11°04' W 171°07'0 0.0 29.3
2018-Jun-18 09:45S 11°04' W 171°07'1 2.4 29.3
2018-Jun-18 09:30S 11°04' W 171°06'0 0.0 29.3
2018-Jun-18 08:45S 11°04' W 171°06'1 2.4 29.3
2018-Jun-18 08:30S 11°04' W 171°07'1 1.2 29.4
2018-Jun-18 08:00S 11°04' W 171°06'0 0.0 29.4
2018-Jun-18 07:45S 11°04' W 171°06'1 2.4 29.4
2018-Jun-18 07:30S 11°04' W 171°07'0 0.0 29.4
2018-Jun-18 07:15S 11°04' W 171°07'1 0.8 29.4
2018-Jun-18 06:15S 11°04' W 171°06'1 2.4 29.4
2018-Jun-18 05:45S 11°05' W 171°06'0 0.0 29.4
2018-Jun-18 05:30S 11°05' W 171°06'1 1.1 29.4
2018-Jun-18 04:45S 11°04' W 171°05'0 0.0 29.4
2018-Jun-18 04:30S 11°04' W 171°05'1 0.9 29.4
2018-Jun-18 03:00S 11°03' W 171°06'0 0.0 29.4
2018-Jun-17 21:45S 11°03' W 171°06'1 1.2 29.4
2018-Jun-17 21:15S 11°03' W 171°05'1 3.4 29.3
2018-Jun-17 21:00S 11°02' W 171°05'0 0.0 29.3
2018-Jun-17 20:15S 11°02' W 171°05'1 2.4 29.2
2018-Jun-17 20:00S 11°02' W 171°04'0 0.0 29.2
2018-Jun-17 19:30S 11°02' W 171°04'0 0.0 29.2
2018-Jun-17 19:15S 11°02' W 171°04'0 0.0 29.2
2018-Jun-17 18:45S 11°02' W 171°04'0 0.0 29.2
2018-Jun-17 18:30S 11°02' W 171°04'0 0.0 29.2
2018-Jun-17 17:45S 11°02' W 171°04'0 0.0 29.2
2018-Jun-17 17:30S 11°02' W 171°04'0 0.0 29.2
2018-Jun-17 17:15S 11°02' W 171°04'1 2.4 29.2
2018-Jun-17 17:00S 11°02' W 171°04'0 0.0 29.2
2018-Jun-17 16:00S 11°02' W 171°04'0 0.0 29.2
2018-Jun-17 14:30S 11°02' W 171°04'1 5.3 29.2
2018-Jun-17 14:15S 11°01' W 171°03'0 0.0 29.2
2018-Jun-17 10:00S 11°01' W 171°03'0 0.0 29.3
2018-Jun-17 09:45S 11°01' W 171°03'1 1.8 29.3
2018-Jun-17 09:00S 11°00' W 171°02'0 0.0 29.4
2018-Jun-17 08:45S 11°00' W 171°02'0 0.0 29.4
2018-Jun-17 08:15S 11°00' W 171°02'1 1.8 29.4
2018-Jun-17 07:30S 10°59' W 171°01'0 0.0 29.4
2018-Jun-17 07:15S 10°59' W 171°01'0 0.0 29.4
2018-Jun-17 06:15S 10°59' W 171°01'0 0.0 29.4
2018-Jun-17 06:00S 10°59' W 171°01'0 0.0 29.4
2018-Jun-17 05:45S 10°59' W 171°01'0 0.0 29.4
2018-Jun-17 05:15S 10°59' W 171°01'0 0.0 29.5
2018-Jun-17 05:00S 10°59' W 171°01'0 0.0 29.5
2018-Jun-17 04:45S 10°59' W 171°01'0 0.0 29.5
2018-Jun-17 04:30S 10°59' W 171°01'0 0.0 29.5
2018-Jun-17 03:15S 10°59' W 171°01'0 0.0 29.6
2018-Jun-17 03:00S 10°59' W 171°01'2 0.4 29.6
2018-Jun-16 22:00S 10°58' W 171°01'0 0.0 29.4
2018-Jun-16 21:30S 10°58' W 171°01'0 0.0 29.3
2018-Jun-16 21:15S 10°58' W 171°01'1 0.8 29.3
2018-Jun-16 20:30S 10°58' W 171°00'1 2.4 29.3
2018-Jun-16 20:15S 10°57' W 171°00'0 0.0 29.3
2018-Jun-16 19:45S 10°57' W 171°00'0 0.0 29.3
2018-Jun-16 19:30S 10°57' W 171°00'0 0.0 29.3
2018-Jun-16 19:00S 10°57' W 171°00'1 2.4 29.2
2018-Jun-16 18:45S 10°56' W 171°00'1 1.7 29.3
2018-Jun-16 18:15S 10°57' W 171°01'0 0.0 29.2
2018-Jun-16 18:00S 10°57' W 171°01'1 2.4 29.2
2018-Jun-16 17:45S 10°56' W 171°01'1 2.4 29.2
2018-Jun-16 17:30S 10°56' W 171°00'0 0.0 29.2
2018-Jun-16 16:30S 10°56' W 171°00'1 2.4 29.3
2018-Jun-16 16:15S 10°56' W 171°00'0 0.0 29.2
2018-Jun-16 14:45S 10°56' W 171°00'2 9.9 29.3
2018-Jun-16 14:30S 10°53' W 170°59'0 0.0 29.3
2018-Jun-16 10:15S 10°53' W 170°59'1 0.8 29.3
2018-Jun-16 09:15S 10°53' W 170°59'0 0.0 29.3
2018-Jun-16 08:45S 10°53' W 170°59'0 0.0 29.3
2018-Jun-16 08:30S 10°53' W 170°59'0 0.0 29.3
2018-Jun-16 07:45S 10°53' W 170°59'0 0.0 29.3
2018-Jun-16 07:30S 10°53' W 170°59'2 1.3 29.3
2018-Jun-16 06:00S 10°51' W 170°58'0 0.0 29.3
2018-Jun-16 05:45S 10°51' W 170°58'1 2.4 29.3
2018-Jun-16 05:30S 10°51' W 170°58'0 0.0 29.3
2018-Jun-16 05:00S 10°51' W 170°58'0 0.0 29.3
2018-Jun-16 04:45S 10°51' W 170°58'1 0.8 29.3
2018-Jun-16 04:00S 10°50' W 170°58'0 0.0 29.3
2018-Jun-16 03:30S 10°50' W 170°58'0 0.0 29.3
2018-Jun-16 03:15S 10°50' W 170°58'3 0.5 29.4
2018-Jun-15 21:45S 10°49' W 170°55'1 1.3 29.3
2018-Jun-15 20:45S 10°48' W 170°55'0 0.0 29.3
2018-Jun-15 20:15S 10°48' W 170°55'1 2.4 29.3
2018-Jun-15 20:00S 10°49' W 170°55'0 0.0 29.2
2018-Jun-15 19:00S 10°49' W 170°55'2 6.7 29.2
2018-Jun-15 18:45S 10°47' W 170°53'0 0.0 29.2
2018-Jun-15 18:30S 10°47' W 170°53'0 0.0 29.2
2018-Jun-15 18:00S 10°47' W 170°53'1 0.6 29.2
2018-Jun-15 17:00S 10°47' W 170°54'1 1.2 29.3
2018-Jun-15 16:30S 10°47' W 170°53'0 0.0 29.3
2018-Jun-15 16:15S 10°47' W 170°53'2 1.1 29.3
2018-Jun-15 14:45S 10°46' W 170°52'1 0.1 29.3
2018-Jun-15 09:45S 10°46' W 170°53'1 3.4 29.3
2018-Jun-15 09:30S 10°47' W 170°52'1 2.7 29.3
2018-Jun-15 09:00S 10°46' W 170°52'0 0.0 29.3
2018-Jun-15 08:45S 10°46' W 170°52'1 0.8 29.3
2018-Jun-15 08:00S 10°46' W 170°52'1 2.4 29.3
2018-Jun-15 07:45S 10°46' W 170°52'1 0.4 29.3
2018-Jun-15 06:15S 10°46' W 170°51'   29.4

Dump ship's entire track history